Time;durP1;ratioP1;P1;durP2;ratioP2;P2;SDS_P1;SDS_P2;PMS_P1;PMS_P2;Temp;Humidity;BMP_temperature;BMP_pressure;BME280_temperature;BME280_humidity;BME280_pressure;Samples;Min_cycle;Max_cycle;Signal;HPM_P1;HPM_P2
2021/08/09 00:01:57;;;;;;;10.27;7.80;;;;;;;;;;5050974;28;20040;-76
2021/08/09 00:04:23;;;;;;;9.68;8.15;;;;;;;;;;5051270;28;20427;-76
2021/08/09 00:06:49;;;;;;;11.60;9.13;;;;;;;;;;5051062;28;20526;-76
2021/08/09 00:09:15;;;;;;;10.10;8.98;;;;;;;;;;5050855;28;20060;-74
2021/08/09 00:11:42;;;;;;;9.27;8.32;;;;;;;;;;5054658;28;20459;-74
2021/08/09 00:14:08;;;;;;;11.60;8.73;;;;;;;;;;5055055;28;20031;-74
2021/08/09 00:16:34;;;;;;;9.40;8.48;;;;;;;;;;5055095;28;20025;-76
2021/08/09 00:19:00;;;;;;;9.90;9.00;;;;;;;;;;5055162;28;20056;-76
2021/08/09 00:21:26;;;;;;;10.18;9.18;;;;;;;;;;5055067;28;20035;-76
2021/08/09 00:23:52;;;;;;;10.00;9.00;;;;;;;;;;5054955;28;20028;-74
2021/08/09 00:26:20;;;;;;;10.48;9.27;;;;;;;;;;5054901;28;20025;-76
2021/08/09 00:28:47;;;;;;;9.75;8.82;;;;;;;;;;5054852;28;20037;-75
2021/08/09 00:31:13;;;;;;;10.60;9.50;;;;;;;;;;5054501;28;20021;-75
2021/08/09 00:33:39;;;;;;;10.02;8.30;;;;;;;;;;5055079;28;20028;-74
2021/08/09 00:36:05;;;;;;;9.52;8.73;;;;;;;;;;5054764;28;20032;-74
2021/08/09 00:38:31;;;;;;;9.95;8.95;;;;;;;;;;5054652;28;20017;-76
2021/08/09 00:40:57;;;;;;;9.35;8.45;;;;;;;;;;5054653;28;20025;-74
2021/08/09 00:43:24;;;;;;;10.15;9.10;;;;;;;;;;5053219;28;20024;-74
2021/08/09 00:45:50;;;;;;;9.98;9.07;;;;;;;;;;5054468;28;20033;-76
2021/08/09 00:48:16;;;;;;;8.90;7.43;;;;;;;;;;5054204;28;20052;-76
2021/08/09 00:50:43;;;;;;;8.18;7.15;;;;;;;;;;5054542;28;20472;-75
2021/08/09 00:53:09;;;;;;;8.55;7.10;;;;;;;;;;5054481;28;20029;-75
2021/08/09 00:55:36;;;;;;;9.65;8.60;;;;;;;;;;5051619;28;20021;-75
2021/08/09 00:58:02;;;;;;;8.23;7.43;;;;;;;;;;5054434;28;20067;-75
2021/08/09 01:00:29;;;;;;;10.30;7.68;;;;;;;;;;5054315;28;20055;-74
2021/08/09 01:02:55;;;;;;;9.45;7.18;;;;;;;;;;5054930;28;20021;-76
2021/08/09 01:05:22;;;;;;;8.07;7.28;;;;;;;;;;5054867;28;20108;-74
2021/08/09 01:07:53;;;;;;;7.95;6.90;;;;;;;;;;5054855;28;20035;-75
2021/08/09 01:10:24;;;;;;;7.93;7.07;;;;;;;;;;5054669;28;20447;-74
2021/08/09 01:12:59;;;;;;;8.75;7.10;;;;;;;;;;5054625;28;20029;-74
2021/08/09 01:15:51;;;;;;;8.48;6.72;;;;;;;;;;5054602;28;20087;-75
2021/08/09 01:18:19;;;;;;;7.50;6.80;;;;;;;;;;5053554;28;20107;-74
2021/08/09 01:20:55;;;;;;;7.00;6.25;;;;;;;;;;5054351;28;20044;-74
2021/08/09 01:23:40;;;;;;;6.68;6.03;;;;;;;;;;5053793;28;20070;-76
2021/08/09 01:26:06;;;;;;;6.88;6.28;;;;;;;;;;5054619;28;20079;-74
2021/08/09 01:28:33;;;;;;;8.15;6.22;;;;;;;;;;5054067;28;20077;-75
2021/08/09 01:31:00;;;;;;;6.85;6.25;;;;;;;;;;5054526;28;20049;-73
2021/08/09 01:33:26;;;;;;;7.75;6.13;;;;;;;;;;5054273;28;20025;-74
2021/08/09 01:35:54;;;;;;;7.05;6.50;;;;;;;;;;5054299;28;20025;-77
2021/08/09 01:38:21;;;;;;;6.90;6.28;;;;;;;;;;5054165;28;20060;-76
2021/08/09 01:40:48;;;;;;;7.40;6.70;;;;;;;;;;5054151;28;20021;-74
2021/08/09 01:43:15;;;;;;;9.13;7.38;;;;;;;;;;5054272;28;20072;-75
2021/08/09 01:45:41;;;;;;;9.52;6.78;;;;;;;;;;5054070;28;20033;-73
2021/08/09 01:48:09;;;;;;;7.55;6.72;;;;;;;;;;5053778;28;20064;-75
2021/08/09 01:50:36;;;;;;;7.60;6.85;;;;;;;;;;5054035;28;20485;-73
2021/08/09 01:53:02;;;;;;;7.72;6.93;;;;;;;;;;5054017;28;20384;-74
2021/08/09 01:55:29;;;;;;;7.25;6.55;;;;;;;;;;5053804;28;20422;-73
2021/08/09 01:57:55;;;;;;;8.13;7.10;;;;;;;;;;5053967;28;20025;-76
2021/08/09 02:00:21;;;;;;;7.90;7.03;;;;;;;;;;5053910;28;20060;-75
2021/08/09 02:02:48;;;;;;;13.38;11.98;;;;;;;;;;5053613;28;20033;-74
2021/08/09 02:05:17;;;;;;;10.68;9.57;;;;;;;;;;5054015;28;20032;-76
2021/08/09 02:07:44;;;;;;;8.88;7.90;;;;;;;;;;5053767;28;20025;-77
2021/08/09 02:10:15;;;;;;;9.55;8.00;;;;;;;;;;5053658;28;20051;-74
2021/08/09 02:12:59;;;;;;;8.85;7.20;;;;;;;;;;5053709;28;20036;-76
2021/08/09 02:15:46;;;;;;;7.60;6.90;;;;;;;;;;5053674;28;20025;-76
2021/08/09 02:18:35;;;;;;;8.23;7.38;;;;;;;;;;5049633;28;20442;-77
2021/08/09 02:21:06;;;;;;;8.68;7.88;;;;;;;;;;5050474;28;20041;-73
2021/08/09 02:23:36;;;;;;;10.00;7.55;;;;;;;;;;5053181;28;20033;-74
2021/08/09 02:26:04;;;;;;;9.23;8.23;;;;;;;;;;5053339;28;20021;-73
2021/08/09 02:28:31;;;;;;;9.27;8.30;;;;;;;;;;5053054;28;20033;-74
2021/08/09 02:30:59;;;;;;;9.25;8.30;;;;;;;;;;5053287;28;20472;-75
2021/08/09 02:33:26;;;;;;;9.77;8.77;;;;;;;;;;5053168;28;20032;-75
2021/08/09 02:35:53;;;;;;;11.60;8.27;;;;;;;;;;5053338;28;20112;-75
2021/08/09 02:38:19;;;;;;;10.32;9.32;;;;;;;;;;5053279;28;20036;-73
2021/08/09 02:40:46;;;;;;;9.73;8.77;;;;;;;;;;5053128;28;20052;-74
2021/08/09 02:43:12;;;;;;;10.57;9.57;;;;;;;;;;5053162;28;20037;-74
2021/08/09 02:45:41;;;;;;;9.52;8.63;;;;;;;;;;5052888;28;20036;-77
2021/08/09 02:48:07;;;;;;;9.32;8.38;;;;;;;;;;5052713;28;20052;-74
2021/08/09 02:50:34;;;;;;;9.52;8.52;;;;;;;;;;5052940;28;20507;-73
2021/08/09 02:53:00;;;;;;;8.63;7.63;;;;;;;;;;5052924;28;20040;-74
2021/08/09 02:55:27;;;;;;;8.88;7.97;;;;;;;;;;5052747;28;20104;-76
2021/08/09 02:57:54;;;;;;;10.23;8.55;;;;;;;;;;5052522;28;20491;-75
2021/08/09 03:00:20;;;;;;;9.25;8.35;;;;;;;;;;5052650;28;20052;-76
2021/08/09 03:02:46;;;;;;;9.07;7.82;;;;;;;;;;5052402;28;20037;-73
2021/08/09 03:05:14;;;;;;;9.95;8.95;;;;;;;;;;5051320;28;20491;-73
2021/08/09 03:07:42;;;;;;;11.02;8.77;;;;;;;;;;5052343;28;20036;-75
2021/08/09 03:10:09;;;;;;;10.25;8.73;;;;;;;;;;5052565;28;20025;-77
2021/08/09 03:12:35;;;;;;;9.75;8.75;;;;;;;;;;5052435;28;20077;-75
2021/08/09 03:15:02;;;;;;;10.38;8.48;;;;;;;;;;5052491;28;20492;-76
2021/08/09 03:17:29;;;;;;;10.52;8.13;;;;;;;;;;5052337;28;20033;-75
2021/08/09 03:19:55;;;;;;;10.13;8.55;;;;;;;;;;5052078;28;20029;-75
2021/08/09 03:22:22;;;;;;;9.52;8.50;;;;;;;;;;5052464;28;20032;-74
2021/08/09 03:24:48;;;;;;;10.20;9.30;;;;;;;;;;5052134;28;20440;-75
2021/08/09 03:27:14;;;;;;;10.13;9.13;;;;;;;;;;5051024;28;20027;-73
2021/08/09 03:29:40;;;;;;;11.15;8.95;;;;;;;;;;5051875;28;20036;-74
2021/08/09 03:32:06;;;;;;;12.45;9.90;;;;;;;;;;5052282;28;20029;-75
2021/08/09 03:34:32;;;;;;;10.20;9.15;;;;;;;;;;5052086;28;20075;-76
2021/08/09 03:36:58;;;;;;;10.07;8.82;;;;;;;;;;5052108;28;20025;-75
2021/08/09 03:39:25;;;;;;;9.68;8.77;;;;;;;;;;5052196;28;20025;-75
2021/08/09 03:41:51;;;;;;;11.65;8.63;;;;;;;;;;5051768;28;20036;-75
2021/08/09 03:44:17;;;;;;;11.45;8.73;;;;;;;;;;5051931;28;20029;-74
2021/08/09 03:46:43;;;;;;;9.93;9.02;;;;;;;;;;5051346;28;20032;-76
2021/08/09 03:49:10;;;;;;;9.25;8.35;;;;;;;;;;5051627;28;20061;-76
2021/08/09 03:51:37;;;;;;;10.80;8.90;;;;;;;;;;5052083;28;20464;-75
2021/08/09 03:54:03;;;;;;;10.27;8.63;;;;;;;;;;5051780;28;20029;-75
2021/08/09 03:56:29;;;;;;;12.90;8.27;;;;;;;;;;5051813;28;20033;-74
2021/08/09 03:58:55;;;;;;;8.55;7.65;;;;;;;;;;5051688;28;20021;-76
2021/08/09 04:01:22;;;;;;;17.35;14.50;;;;;;;;;;5051979;28;20468;-76
2021/08/09 04:03:48;;;;;;;14.98;10.98;;;;;;;;;;5051589;28;20021;-77
2021/08/09 04:06:16;;;;;;;10.88;9.73;;;;;;;;;;5052329;28;20072;-77
2021/08/09 04:08:42;;;;;;;10.90;8.93;;;;;;;;;;5052390;28;20044;-75
2021/08/09 04:11:08;;;;;;;35.47;31.77;;;;;;;;;;5051994;28;20025;-74
2021/08/09 04:13:34;;;;;;;20.30;17.92;;;;;;;;;;5051954;28;20543;-74
2021/08/09 04:16:01;;;;;;;12.85;9.55;;;;;;;;;;5051446;28;20392;-77
2021/08/09 04:18:27;;;;;;;14.82;10.98;;;;;;;;;;5051813;28;20036;-76
2021/08/09 04:20:53;;;;;;;10.52;9.48;;;;;;;;;;5051526;28;20036;-76
2021/08/09 04:23:19;;;;;;;12.40;9.52;;;;;;;;;;5052054;28;20029;-78
2021/08/09 04:25:45;;;;;;;10.02;8.70;;;;;;;;;;5051888;28;20033;-75
2021/08/09 04:28:11;;;;;;;11.18;10.07;;;;;;;;;;5051480;28;20032;-74
2021/08/09 04:30:37;;;;;;;11.18;9.13;;;;;;;;;;5051706;28;20395;-75
2021/08/09 04:33:04;;;;;;;11.02;9.55;;;;;;;;;;5051428;28;20512;-76
2021/08/09 04:35:30;;;;;;;12.57;11.43;;;;;;;;;;5051692;28;20078;-75
2021/08/09 04:37:56;;;;;;;16.08;14.48;;;;;;;;;;5051505;28;20025;-75
2021/08/09 04:40:22;;;;;;;14.05;10.07;;;;;;;;;;5051866;28;20021;-76
2021/08/09 04:42:49;;;;;;;9.93;9.10;;;;;;;;;;5051732;28;20056;-76
2021/08/09 04:45:15;;;;;;;10.13;9.13;;;;;;;;;;5051328;28;20029;-74
2021/08/09 04:47:41;;;;;;;13.40;10.27;;;;;;;;;;5051479;28;20053;-74
2021/08/09 04:50:07;;;;;;;12.43;9.98;;;;;;;;;;5051292;28;20069;-77
2021/08/09 04:52:38;;;;;;;11.32;9.25;;;;;;;;;;5051704;28;20055;-76
2021/08/09 04:55:05;;;;;;;11.40;9.20;;;;;;;;;;5051182;28;20100;-74
2021/08/09 04:57:31;;;;;;;9.73;8.73;;;;;;;;;;5051514;28;20025;-77
2021/08/09 04:59:57;;;;;;;13.02;10.15;;;;;;;;;;5054902;28;20021;-76
2021/08/09 05:02:23;;;;;;;26.30;23.90;;;;;;;;;;5055090;28;20033;-75
2021/08/09 05:04:49;;;;;;;17.30;15.50;;;;;;;;;;5054995;28;20025;-77
2021/08/09 05:07:15;;;;;;;13.15;9.82;;;;;;;;;;5054723;28;20029;-75
2021/08/09 05:09:41;;;;;;;11.32;9.13;;;;;;;;;;5055135;28;20043;-77
2021/08/09 05:12:07;;;;;;;10.88;9.80;;;;;;;;;;5054556;28;20380;-76
2021/08/09 05:14:35;;;;;;;10.50;9.40;;;;;;;;;;5054742;28;20033;-76
2021/08/09 05:17:01;;;;;;;10.55;9.52;;;;;;;;;;5054677;28;20334;-76
2021/08/09 05:19:27;;;;;;;11.20;9.70;;;;;;;;;;5054758;28;20071;-77
2021/08/09 05:21:53;;;;;;;9.60;8.55;;;;;;;;;;5054460;28;20025;-77
2021/08/09 05:24:19;;;;;;;10.52;9.48;;;;;;;;;;5053973;28;20511;-75
2021/08/09 05:26:45;;;;;;;10.23;9.13;;;;;;;;;;5054421;28;20021;-75
2021/08/09 05:29:11;;;;;;;10.77;9.52;;;;;;;;;;5052950;28;20068;-76
2021/08/09 05:31:39;;;;;;;13.52;9.75;;;;;;;;;;5052180;28;20507;-76
2021/08/09 05:34:05;;;;;;;9.95;8.93;;;;;;;;;;5055086;28;20468;-76
2021/08/09 05:36:31;;;;;;;14.43;12.82;;;;;;;;;;5053774;28;20029;-76
2021/08/09 05:39:00;;;;;;;14.25;10.60;;;;;;;;;;5044407;28;20160;-75
2021/08/09 05:41:27;;;;;;;10.77;9.75;;;;;;;;;;5034005;28;20109;-76
2021/08/09 05:43:53;;;;;;;12.95;9.80;;;;;;;;;;5042369;28;20033;-75
2021/08/09 05:46:19;;;;;;;10.38;9.20;;;;;;;;;;5034466;28;20030;-75
2021/08/09 05:48:45;;;;;;;12.23;9.30;;;;;;;;;;5037969;28;20056;-75
2021/08/09 05:51:11;;;;;;;9.88;8.98;;;;;;;;;;5053598;28;20087;-75
2021/08/09 05:53:37;;;;;;;10.68;9.05;;;;;;;;;;5053700;28;20040;-75
2021/08/09 05:56:03;;;;;;;11.30;9.15;;;;;;;;;;5053880;28;20029;-76
2021/08/09 05:58:29;;;;;;;12.55;8.77;;;;;;;;;;5047049;28;20547;-75
2021/08/09 06:00:56;;;;;;;13.10;11.68;;;;;;;;;;5053920;28;20051;-76
2021/08/09 06:03:24;;;;;;;20.90;19.02;;;;;;;;;;5042328;28;20037;-77
2021/08/09 06:05:54;;;;;;;26.55;23.85;;;;;;;;;;5033228;28;20464;-77
2021/08/09 06:08:20;;;;;;;12.07;10.98;;;;;;;;;;5033497;28;20038;-78
2021/08/09 06:10:47;;;;;;;9.77;8.88;;;;;;;;;;5033737;28;20088;-79
2021/08/09 06:13:13;;;;;;;9.82;7.40;;;;;;;;;;5033137;28;20411;-76
2021/08/09 06:15:39;;;;;;;8.77;7.05;;;;;;;;;;5033761;28;20446;-80
2021/08/09 06:18:05;;;;;;;13.20;7.78;;;;;;;;;;5033356;28;20026;-80
2021/08/09 06:20:31;;;;;;;7.80;7.00;;;;;;;;;;5032319;28;20029;-78
2021/08/09 06:22:58;;;;;;;7.28;6.57;;;;;;;;;;5033527;28;20685;-76
2021/08/09 06:25:25;;;;;;;8.77;6.93;;;;;;;;;;5033830;28;20029;-75
2021/08/09 06:27:51;;;;;;;25.58;7.82;;;;;;;;;;5033148;28;20495;-76
2021/08/09 06:30:17;;;;;;;9.02;7.50;;;;;;;;;;5033521;28;20060;-75
2021/08/09 06:32:44;;;;;;;6.82;6.18;;;;;;;;;;5033499;28;20049;-75
2021/08/09 06:35:10;;;;;;;9.05;6.95;;;;;;;;;;5032933;28;20030;-76
2021/08/09 06:37:36;;;;;;;7.20;6.50;;;;;;;;;;5032335;28;20029;-77
2021/08/09 06:40:04;;;;;;;6.93;6.30;;;;;;;;;;5033010;28;20033;-77
2021/08/09 06:42:30;;;;;;;7.75;6.60;;;;;;;;;;5033197;28;20047;-78
2021/08/09 06:44:56;;;;;;;21.48;7.20;;;;;;;;;;5032332;28;20445;-78
2021/08/09 06:47:22;;;;;;;14.20;13.00;;;;;;;;;;5032875;28;20073;-77
2021/08/09 06:49:49;;;;;;;8.68;7.68;;;;;;;;;;5046240;28;20041;-80
2021/08/09 06:52:18;;;;;;;51.10;45.85;;;;;;;;;;5052799;28;20495;-78
2021/08/09 06:54:45;;;;;;;14.27;9.43;;;;;;;;;;5052758;28;20060;-78
2021/08/09 06:57:12;;;;;;;9.45;6.78;;;;;;;;;;5052280;28;20029;-78
2021/08/09 06:59:38;;;;;;;7.35;6.55;;;;;;;;;;5053215;28;20021;-78
2021/08/09 07:02:06;;;;;;;14.75;7.15;;;;;;;;;;5052682;28;20033;-73
2021/08/09 07:04:32;;;;;;;7.40;6.70;;;;;;;;;;5053104;28;20115;-77
2021/08/09 07:06:58;;;;;;;9.93;9.02;;;;;;;;;;5052414;28;20025;-76
2021/08/09 07:09:24;;;;;;;11.27;6.47;;;;;;;;;;5052829;28;20104;-76
2021/08/09 07:11:51;;;;;;;5.72;4.78;;;;;;;;;;5052040;28;20021;-76
2021/08/09 07:14:19;;;;;;;9.25;8.07;;;;;;;;;;5052444;28;20116;-76
2021/08/09 07:16:45;;;;;;;7.22;6.00;;;;;;;;;;5051352;28;20029;-77
2021/08/09 07:19:12;;;;;;;10.30;8.65;;;;;;;;;;5051870;28;20408;-78
2021/08/09 07:21:38;;;;;;;7.53;6.82;;;;;;;;;;5039367;28;20034;-77
2021/08/09 07:24:04;;;;;;;29.67;26.75;;;;;;;;;;5040413;28;20033;-76
2021/08/09 07:26:32;;;;;;;10.43;9.10;;;;;;;;;;5032221;28;20025;-76
2021/08/09 07:28:58;;;;;;;13.48;6.60;;;;;;;;;;5032221;28;20053;-76
2021/08/09 07:31:24;;;;;;;12.57;6.65;;;;;;;;;;5032544;28;20572;-72
2021/08/09 07:33:50;;;;;;;6.00;5.40;;;;;;;;;;5032412;28;20071;-77
2021/08/09 07:36:16;;;;;;;9.82;6.63;;;;;;;;;;5031957;28;20037;-77
2021/08/09 07:38:42;;;;;;;6.57;5.88;;;;;;;;;;5032595;28;20030;-77
2021/08/09 07:41:09;;;;;;;8.60;5.18;;;;;;;;;;5031690;28;20381;-77
2021/08/09 07:43:35;;;;;;;7.60;5.68;;;;;;;;;;5032438;28;20416;-76
2021/08/09 07:46:02;;;;;;;7.97;5.28;;;;;;;;;;5031974;28;20431;-76
2021/08/09 07:48:28;;;;;;;13.10;5.80;;;;;;;;;;5033988;28;20137;-76
2021/08/09 07:50:55;;;;;;;7.90;5.40;;;;;;;;;;5052046;28;20492;-77
2021/08/09 07:53:21;;;;;;;7.68;5.40;;;;;;;;;;5051822;28;20086;-75
2021/08/09 07:55:47;;;;;;;6.93;5.32;;;;;;;;;;5051786;28;20083;-75
2021/08/09 07:58:13;;;;;;;6.95;5.15;;;;;;;;;;5051899;28;20052;-75
2021/08/09 08:00:40;;;;;;;9.88;5.20;;;;;;;;;;5052036;28;20477;-74
2021/08/09 08:03:07;;;;;;;5.07;4.57;;;;;;;;;;5051563;28;20053;-75
2021/08/09 08:05:33;;;;;;;5.85;4.80;;;;;;;;;;5051961;28;20029;-74
2021/08/09 08:07:59;;;;;;;9.32;5.80;;;;;;;;;;5052144;28;20082;-75
2021/08/09 08:10:25;;;;;;;8.57;6.95;;;;;;;;;;5051634;28;20033;-75
2021/08/09 08:12:51;;;;;;;14.13;5.72;;;;;;;;;;5052350;28;20456;-73
2021/08/09 08:15:18;;;;;;;8.18;5.32;;;;;;;;;;5050825;28;20379;-74
2021/08/09 08:17:45;;;;;;;5.68;4.40;;;;;;;;;;5051052;28;20036;-74
2021/08/09 08:20:12;;;;;;;4.97;4.32;;;;;;;;;;5051645;28;20104;-74
2021/08/09 08:22:39;;;;;;;16.65;5.93;;;;;;;;;;5051984;28;20820;-74
2021/08/09 08:25:05;;;;;;;7.60;4.55;;;;;;;;;;5050849;28;20021;-75
2021/08/09 08:27:31;;;;;;;11.80;10.90;;;;;;;;;;5051574;28;20044;-76
2021/08/09 08:29:57;;;;;;;13.25;12.05;;;;;;;;;;5051036;28;20041;-75
2021/08/09 08:32:23;;;;;;;9.93;7.45;;;;;;;;;;5051572;28;20033;-74
2021/08/09 08:34:51;;;;;;;7.00;5.47;;;;;;;;;;5055248;28;20025;-74
2021/08/09 08:37:17;;;;;;;6.18;4.88;;;;;;;;;;5054952;28;20040;-76
2021/08/09 08:39:44;;;;;;;5.95;4.30;;;;;;;;;;5055264;28;20446;-76
2021/08/09 08:42:13;;;;;;;5.97;4.63;;;;;;;;;;5055192;28;20027;-76
2021/08/09 08:44:39;;;;;;;5.63;5.00;;;;;;;;;;5055484;28;20029;-76
2021/08/09 08:47:05;;;;;;;6.03;4.95;;;;;;;;;;5054150;28;20021;-75
2021/08/09 08:49:32;;;;;;;4.60;4.20;;;;;;;;;;5054655;28;20041;-76
2021/08/09 08:51:58;;;;;;;11.27;5.88;;;;;;;;;;5054456;28;20047;-75
2021/08/09 08:54:24;;;;;;;20.52;9.52;;;;;;;;;;5054683;28;20081;-76
2021/08/09 08:56:50;;;;;;;34.70;8.10;;;;;;;;;;5054785;28;20090;-76
2021/08/09 08:59:18;;;;;;;7.03;5.50;;;;;;;;;;5054998;28;20025;-75
2021/08/09 09:01:46;;;;;;;12.18;7.50;;;;;;;;;;5054486;28;20078;-75
2021/08/09 09:04:32;;;;;;;8.18;5.47;;;;;;;;;;5054833;28;20060;-75
2021/08/09 09:07:03;;;;;;;6.47;5.88;;;;;;;;;;5054973;28;20162;-75
2021/08/09 09:09:31;;;;;;;6.32;5.65;;;;;;;;;;5054213;28;20083;-76
2021/08/09 09:11:57;;;;;;;8.13;5.68;;;;;;;;;;5054703;28;20113;-74
2021/08/09 09:14:25;;;;;;;12.40;11.02;;;;;;;;;;5047609;28;20022;-75
2021/08/09 09:16:51;;;;;;;7.38;6.60;;;;;;;;;;5045017;28;20496;-75
2021/08/09 09:19:30;;;;;;;7.90;7.10;;;;;;;;;;5048900;28;20026;-75
2021/08/09 09:21:57;;;;;;;9.60;7.15;;;;;;;;;;5054545;28;20040;-77
2021/08/09 09:24:25;;;;;;;8.63;6.72;;;;;;;;;;5052372;28;20028;-76
2021/08/09 09:27:10;;;;;;;9.88;8.20;;;;;;;;;;5054598;28;20060;-76
2021/08/09 09:29:37;;;;;;;11.00;7.63;;;;;;;;;;5054489;28;20507;-76
2021/08/09 09:32:32;;;;;;;7.70;6.20;;;;;;;;;;5054177;28;20410;-77
2021/08/09 09:34:58;;;;;;;9.68;7.22;;;;;;;;;;5049786;28;20499;-77
2021/08/09 09:37:36;;;;;;;9.20;6.95;;;;;;;;;;5054298;28;20025;-75
2021/08/09 09:40:21;;;;;;;7.97;7.18;;;;;;;;;;5053752;28;20074;-76
2021/08/09 09:42:48;;;;;;;7.90;7.07;;;;;;;;;;5053592;28;20131;-76
2021/08/09 09:45:21;;;;;;;9.57;8.23;;;;;;;;;;5054367;28;20029;-75
2021/08/09 09:48:06;;;;;;;8.88;7.30;;;;;;;;;;5053598;28;20126;-75
2021/08/09 09:50:33;;;;;;;8.82;6.82;;;;;;;;;;5053358;28;20152;-76
2021/08/09 09:53:13;;;;;;;9.95;6.20;;;;;;;;;;5053090;28;20035;-74
2021/08/09 09:55:41;;;;;;;7.68;6.18;;;;;;;;;;5050331;28;20036;-76
2021/08/09 09:58:07;;;;;;;8.07;6.68;;;;;;;;;;5051528;28;20029;-75
2021/08/09 10:00:34;;;;;;;10.27;7.00;;;;;;;;;;5053292;28;20032;-75
2021/08/09 10:03:00;;;;;;;10.55;7.32;;;;;;;;;;5053277;28;20025;-74
2021/08/09 10:05:27;;;;;;;10.07;6.63;;;;;;;;;;5053029;28;20028;-75
2021/08/09 10:07:54;;;;;;;9.60;6.45;;;;;;;;;;5052286;28;20744;-76
2021/08/09 10:10:24;;;;;;;9.68;6.38;;;;;;;;;;5053646;28;20063;-75
2021/08/09 10:12:51;;;;;;;10.63;5.72;;;;;;;;;;5052880;28;20025;-74
2021/08/09 10:15:19;;;;;;;7.45;5.20;;;;;;;;;;5051927;28;20040;-75
2021/08/09 10:17:45;;;;;;;10.27;4.90;;;;;;;;;;5053273;28;20029;-75
2021/08/09 10:20:12;;;;;;;8.00;4.32;;;;;;;;;;5053073;28;20036;-76
2021/08/09 10:22:39;;;;;;;10.15;5.32;;;;;;;;;;5052024;28;20032;-74
2021/08/09 10:25:06;;;;;;;9.88;5.47;;;;;;;;;;5052454;28;20039;-75
2021/08/09 10:27:51;;;;;;;8.82;6.20;;;;;;;;;;5053081;28;20037;-74
2021/08/09 10:30:18;;;;;;;13.20;5.80;;;;;;;;;;5050865;28;20151;-73
2021/08/09 10:32:45;;;;;;;8.57;5.93;;;;;;;;;;5052095;28;20032;-73
2021/08/09 10:35:29;;;;;;;5.82;5.03;;;;;;;;;;5049593;28;20039;-75
2021/08/09 10:38:15;;;;;;;7.53;5.03;;;;;;;;;;5051068;28;20162;-75
2021/08/09 10:40:42;;;;;;;6.53;4.85;;;;;;;;;;5051871;28;20108;-74
2021/08/09 10:43:08;;;;;;;7.57;4.60;;;;;;;;;;5053152;28;20077;-74
2021/08/09 10:45:39;;;;;;;9.02;4.57;;;;;;;;;;5053255;28;20029;-73
2021/08/09 10:48:05;;;;;;;8.15;4.22;;;;;;;;;;5050762;28;20637;-74
2021/08/09 10:50:38;;;;;;;7.28;4.43;;;;;;;;;;5052155;28;20029;-74
2021/08/09 10:53:05;;;;;;;7.32;4.10;;;;;;;;;;5051941;28;20178;-74
2021/08/09 10:55:31;;;;;;;6.22;4.88;;;;;;;;;;5051587;28;20384;-74
2021/08/09 10:58:01;;;;;;;6.97;4.85;;;;;;;;;;5051844;28;20032;-74
2021/08/09 11:00:45;;;;;;;6.22;4.80;;;;;;;;;;5052142;28;20021;-74
2021/08/09 11:03:12;;;;;;;7.50;4.22;;;;;;;;;;5052020;28;20082;-75
2021/08/09 11:05:39;;;;;;;6.90;4.10;;;;;;;;;;5051057;28;20044;-70
2021/08/09 11:08:14;;;;;;;9.60;5.53;;;;;;;;;;5051466;28;20040;-74
2021/08/09 11:10:54;;;;;;;8.27;4.13;;;;;;;;;;5052885;28;20468;-75
2021/08/09 11:13:20;;;;;;;9.95;4.18;;;;;;;;;;5052994;28;20082;-74
2021/08/09 11:15:57;;;;;;;7.00;4.00;;;;;;;;;;5051680;28;20357;-74
2021/08/09 11:18:23;;;;;;;7.10;3.30;;;;;;;;;;5051089;28;20551;-74
2021/08/09 11:21:00;;;;;;;7.53;4.05;;;;;;;;;;5036407;28;20029;-73
2021/08/09 11:23:27;;;;;;;5.88;3.83;;;;;;;;;;5041824;28;20033;-76
2021/08/09 11:25:53;;;;;;;5.82;3.35;;;;;;;;;;5039650;28;20498;-73
2021/08/09 11:28:23;;;;;;;8.90;3.88;;;;;;;;;;5052487;28;20029;-73
2021/08/09 11:30:54;;;;;;;6.90;3.08;;;;;;;;;;5051915;28;20032;-74
2021/08/09 11:33:23;;;;;;;5.03;3.50;;;;;;;;;;5052319;28;20025;-74
2021/08/09 11:35:49;;;;;;;6.35;4.13;;;;;;;;;;5051971;28;20152;-74
2021/08/09 11:38:16;;;;;;;7.00;4.25;;;;;;;;;;5051588;28;20029;-74
2021/08/09 11:40:42;;;;;;;7.55;3.53;;;;;;;;;;5052429;28;20208;-74
2021/08/09 11:43:09;;;;;;;7.30;3.65;;;;;;;;;;5051724;28;20029;-74
2021/08/09 11:45:35;;;;;;;5.28;3.30;;;;;;;;;;5052113;28;20502;-75
2021/08/09 11:48:02;;;;;;;4.57;4.18;;;;;;;;;;5051686;28;20493;-75
2021/08/09 11:50:34;;;;;;;7.75;4.20;;;;;;;;;;5051888;28;20047;-74
2021/08/09 11:53:00;;;;;;;6.63;5.72;;;;;;;;;;5050416;28;20426;-74
2021/08/09 11:55:26;;;;;;;6.55;4.85;;;;;;;;;;5051269;28;20033;-75
2021/08/09 11:57:53;;;;;;;7.40;3.80;;;;;;;;;;5051263;28;20090;-73
2021/08/09 12:00:19;;;;;;;5.00;3.70;;;;;;;;;;5051617;28;20488;-73
2021/08/09 12:03:03;;;;;;;5.20;3.78;;;;;;;;;;5051357;28;20104;-73
2021/08/09 12:05:30;;;;;;;5.22;3.40;;;;;;;;;;5031428;28;20033;-72
2021/08/09 12:08:03;;;;;;;6.03;3.92;;;;;;;;;;5035019;28;20021;-74
2021/08/09 12:10:29;;;;;;;12.02;10.30;;;;;;;;;;5035599;28;20029;-74
2021/08/09 12:12:56;;;;;;;6.22;4.95;;;;;;;;;;5035385;28;20491;-74
2021/08/09 12:15:23;;;;;;;5.85;3.40;;;;;;;;;;5035188;28;20026;-74
2021/08/09 12:18:09;;;;;;;5.75;3.30;;;;;;;;;;5035663;28;20072;-74
2021/08/09 12:20:36;;;;;;;7.05;3.40;;;;;;;;;;5035494;28;20037;-73
2021/08/09 12:23:03;;;;;;;7.43;3.38;;;;;;;;;;5035121;28;20653;-75
2021/08/09 12:25:47;;;;;;;5.10;3.10;;;;;;;;;;5035591;28;20021;-74
2021/08/09 12:28:14;;;;;;;4.75;3.08;;;;;;;;;;5035162;28;20118;-75
2021/08/09 12:30:58;;;;;;;5.60;3.47;;;;;;;;;;5035236;28;20025;-75
2021/08/09 12:33:24;;;;;;;6.72;2.70;;;;;;;;;;5035201;28;20028;-76
2021/08/09 12:35:51;;;;;;;4.05;2.40;;;;;;;;;;5035136;28;20034;-75
2021/08/09 12:38:17;;;;;;;3.05;2.53;;;;;;;;;;5035821;28;20064;-75
2021/08/09 12:41:04;;;;;;;3.78;2.92;;;;;;;;;;5039003;28;20040;-76
2021/08/09 12:43:30;;;;;;;3.80;2.65;;;;;;;;;;5034718;28;20504;-75
2021/08/09 12:45:56;;;;;;;8.10;3.20;;;;;;;;;;5034808;28;20028;-75
2021/08/09 12:48:22;;;;;;;5.88;3.25;;;;;;;;;;5050825;28;20064;-75
2021/08/09 12:50:48;;;;;;;8.77;4.10;;;;;;;;;;5054698;28;20479;-76
2021/08/09 12:53:14;;;;;;;5.45;2.67;;;;;;;;;;5054799;28;20514;-76
2021/08/09 12:55:40;;;;;;;5.10;2.88;;;;;;;;;;5054531;28;20021;-76
2021/08/09 12:58:07;;;;;;;7.63;4.50;;;;;;;;;;5053292;28;20545;-76
2021/08/09 13:00:33;;;;;;;5.55;2.63;;;;;;;;;;5053316;28;20033;-76
2021/08/09 13:02:59;;;;;;;4.18;3.45;;;;;;;;;;5054758;28;20149;-74
2021/08/09 13:05:25;;;;;;;11.18;3.92;;;;;;;;;;5054475;28;20111;-75
2021/08/09 13:07:52;;;;;;;4.65;2.67;;;;;;;;;;5054897;28;20021;-75
2021/08/09 13:10:18;;;;;;;6.43;2.55;;;;;;;;;;5054613;28;20025;-76
2021/08/09 13:12:44;;;;;;;5.75;2.53;;;;;;;;;;5054701;28;20033;-76
2021/08/09 13:15:10;;;;;;;4.20;2.13;;;;;;;;;;5047183;28;20029;-76
2021/08/09 13:17:38;;;;;;;4.30;2.30;;;;;;;;;;5039542;28;20808;-75
2021/08/09 13:20:04;;;;;;;4.40;2.47;;;;;;;;;;5042183;28;20041;-75
2021/08/09 13:22:32;;;;;;;5.30;2.58;;;;;;;;;;5040217;28;20029;-74
2021/08/09 13:25:01;;;;;;;3.55;2.40;;;;;;;;;;5041447;28;20091;-74
2021/08/09 13:27:27;;;;;;;5.15;2.35;;;;;;;;;;5040371;28;20365;-73
2021/08/09 13:29:54;;;;;;;4.30;2.40;;;;;;;;;;5041293;28;20406;-75
2021/08/09 13:32:21;;;;;;;4.93;2.80;;;;;;;;;;5041505;28;20031;-75
2021/08/09 13:34:47;;;;;;;4.15;2.50;;;;;;;;;;5042538;28;20045;-75
2021/08/09 13:37:13;;;;;;;5.55;2.65;;;;;;;;;;5047284;28;20480;-74
2021/08/09 13:39:40;;;;;;;5.53;2.65;;;;;;;;;;5044769;28;20541;-74
2021/08/09 13:42:06;;;;;;;5.47;2.55;;;;;;;;;;5045815;28;20033;-75
2021/08/09 13:44:32;;;;;;;6.32;2.95;;;;;;;;;;5043216;28;20036;-74
2021/08/09 13:46:58;;;;;;;7.32;2.88;;;;;;;;;;5045422;28;20036;-76
2021/08/09 13:49:24;;;;;;;4.82;2.88;;;;;;;;;;5034999;28;20546;-76
2021/08/09 13:51:50;;;;;;;9.27;3.95;;;;;;;;;;5034103;28;20030;-76
2021/08/09 13:54:16;;;;;;;8.45;7.38;;;;;;;;;;5036466;28;20036;-76
2021/08/09 13:56:43;;;;;;;6.97;3.38;;;;;;;;;;5053694;28;20032;-75
2021/08/09 13:59:09;;;;;;;5.55;2.42;;;;;;;;;;5053919;28;20033;-75
2021/08/09 14:01:35;;;;;;;5.55;3.40;;;;;;;;;;5053551;28;20025;-76
2021/08/09 14:04:01;;;;;;;7.55;3.42;;;;;;;;;;5053657;28;20032;-74
2021/08/09 14:06:27;;;;;;;5.22;3.00;;;;;;;;;;5053929;28;20033;-75
2021/08/09 14:08:54;;;;;;;11.00;4.43;;;;;;;;;;5053613;28;20120;-75
2021/08/09 14:11:20;;;;;;;6.20;3.47;;;;;;;;;;5053784;28;20029;-75
2021/08/09 14:13:46;;;;;;;5.78;3.08;;;;;;;;;;5051421;28;20375;-76
2021/08/09 14:16:12;;;;;;;4.57;3.03;;;;;;;;;;5042661;28;20037;-74
2021/08/09 14:18:38;;;;;;;4.78;3.40;;;;;;;;;;5043839;28;20072;-74
2021/08/09 14:21:04;;;;;;;5.07;3.13;;;;;;;;;;5044313;28;20443;-74
2021/08/09 14:23:31;;;;;;;5.55;2.88;;;;;;;;;;5045280;28;20033;-75
2021/08/09 14:25:57;;;;;;;6.20;2.63;;;;;;;;;;5043286;28;20078;-76
2021/08/09 14:28:23;;;;;;;4.90;3.33;;;;;;;;;;5043145;28;20507;-75
2021/08/09 14:30:49;;;;;;;6.07;3.13;;;;;;;;;;5040981;28;20065;-75
2021/08/09 14:33:15;;;;;;;4.45;3.35;;;;;;;;;;5041125;28;20036;-74
2021/08/09 14:35:42;;;;;;;7.18;3.25;;;;;;;;;;5043511;28;20092;-74
2021/08/09 14:38:08;;;;;;;7.07;3.40;;;;;;;;;;5041788;28;20049;-75
2021/08/09 14:40:35;;;;;;;10.25;3.95;;;;;;;;;;5045411;28;20445;-75
2021/08/09 14:43:01;;;;;;;11.95;3.95;;;;;;;;;;5041866;28;20091;-75